createdAt,value
2017-12-23T00:00:38.670Z,8.60
2017-12-23T00:03:06.208Z,8.60
2017-12-23T00:05:33.750Z,8.60
2017-12-23T00:08:01.262Z,8.60
2017-12-23T00:10:28.831Z,8.50
2017-12-23T00:12:56.365Z,8.60
2017-12-23T00:15:23.919Z,8.60
2017-12-23T00:17:51.449Z,8.60
2017-12-23T00:20:19.006Z,8.60
2017-12-23T00:22:46.518Z,8.60
2017-12-23T00:25:14.816Z,8.50
2017-12-23T00:27:43.011Z,8.50
2017-12-23T00:30:10.539Z,8.60
2017-12-23T00:32:38.112Z,8.60
2017-12-23T00:35:06.453Z,8.60
2017-12-23T00:37:33.976Z,8.60
2017-12-23T00:40:01.530Z,8.60
2017-12-23T00:42:29.067Z,8.60
2017-12-23T00:44:56.589Z,8.70
2017-12-23T00:47:24.147Z,8.70
2017-12-23T00:49:51.702Z,8.70
2017-12-23T00:52:19.253Z,8.80
2017-12-23T00:54:46.790Z,8.70
2017-12-23T00:57:14.356Z,8.80
2017-12-23T00:59:41.906Z,8.80
2017-12-23T01:02:09.416Z,8.80
2017-12-23T01:04:36.981Z,8.70
2017-12-23T01:07:04.563Z,8.80
2017-12-23T01:09:32.248Z,8.80
2017-12-23T01:11:59.771Z,8.80
2017-12-23T01:14:27.338Z,8.80
2017-12-23T01:16:54.885Z,8.80
2017-12-23T01:19:22.476Z,8.90
2017-12-23T01:21:50.917Z,8.90
2017-12-23T01:24:18.489Z,8.90
2017-12-23T01:26:47.523Z,8.80
2017-12-23T01:29:15.153Z,8.80
2017-12-23T01:31:43.472Z,8.80
2017-12-23T01:34:11.050Z,8.80
2017-12-23T01:36:38.576Z,8.80
2017-12-23T01:39:06.265Z,8.70
2017-12-23T01:41:33.828Z,8.80
2017-12-23T01:44:01.374Z,8.60
2017-12-23T01:46:30.690Z,8.60
2017-12-23T01:48:58.268Z,8.50
2017-12-23T01:51:25.836Z,8.50
2017-12-23T01:53:53.410Z,8.40
2017-12-23T01:56:21.023Z,8.40
2017-12-23T01:58:48.589Z,8.40
2017-12-23T02:01:16.147Z,8.50
2017-12-23T02:03:43.707Z,8.40
2017-12-23T02:06:11.777Z,8.20
2017-12-23T02:08:39.303Z,8.20
2017-12-23T02:11:06.883Z,8.30
2017-12-23T02:13:34.401Z,8.40
2017-12-23T02:16:02.744Z,8.30
2017-12-23T02:18:30.395Z,8.30
2017-12-23T02:20:57.918Z,8.30
2017-12-23T02:23:25.823Z,8.40
2017-12-23T02:25:53.363Z,8.40
2017-12-23T02:28:20.889Z,8.40
2017-12-23T02:30:48.437Z,8.40
2017-12-23T02:33:15.954Z,8.50
2017-12-23T02:35:43.621Z,8.50
2017-12-23T02:38:11.156Z,8.50
2017-12-23T02:40:39.439Z,8.30
2017-12-23T02:43:06.988Z,8.30
2017-12-23T02:45:34.515Z,8.40
2017-12-23T02:48:02.031Z,8.40
2017-12-23T02:50:29.587Z,8.20
2017-12-23T02:52:57.103Z,8.30
2017-12-23T02:55:24.672Z,8.30
2017-12-23T02:57:52.210Z,8.20
2017-12-23T03:00:19.720Z,8.10
2017-12-23T03:02:47.274Z,8.10
2017-12-23T03:05:14.809Z,8.20
2017-12-23T03:07:42.980Z,8.30
2017-12-23T03:10:10.909Z,8.30
2017-12-23T03:12:38.443Z,8.20
2017-12-23T03:15:06.355Z,8.20
2017-12-23T03:17:33.867Z,8.10
2017-12-23T03:20:01.385Z,8.10
2017-12-23T03:22:28.944Z,8.20
2017-12-23T03:24:56.515Z,8.30
2017-12-23T03:27:24.047Z,8.30
2017-12-23T03:29:51.602Z,8.30
2017-12-23T03:32:19.130Z,8.40
2017-12-23T03:34:46.906Z,8.50
2017-12-23T03:37:14.495Z,8.60
2017-12-23T03:39:42.125Z,8.70
2017-12-23T03:42:09.652Z,8.60
2017-12-23T03:44:37.455Z,8.50
2017-12-23T03:47:04.981Z,8.50
2017-12-23T03:49:32.552Z,8.50
2017-12-23T03:52:00.063Z,8.50
2017-12-23T03:54:27.630Z,8.40
2017-12-23T03:56:55.173Z,8.50
2017-12-23T03:59:22.731Z,8.40
2017-12-23T04:01:50.252Z,8.50
2017-12-23T04:04:17.844Z,8.60
2017-12-23T04:06:45.372Z,8.50
2017-12-23T04:09:12.902Z,8.20
2017-12-23T04:11:40.449Z,8.00
2017-12-23T04:14:08.034Z,8.20
2017-12-23T04:16:35.574Z,8.10
2017-12-23T04:19:03.152Z,8.10
2017-12-23T04:21:30.713Z,8.10
2017-12-23T04:23:58.253Z,8.10
2017-12-23T04:26:26.567Z,8.10
2017-12-23T04:28:54.121Z,8.00
2017-12-23T04:31:21.639Z,8.10
2017-12-23T04:33:49.198Z,8.10
2017-12-23T04:36:16.726Z,8.10
2017-12-23T04:38:45.128Z,8.10
2017-12-23T04:41:12.667Z,8.00
2017-12-23T04:43:40.179Z,8.00
2017-12-23T04:46:07.756Z,8.00
2017-12-23T04:48:35.331Z,8.00
2017-12-23T04:51:02.866Z,8.00
2017-12-23T04:53:31.189Z,8.00
2017-12-23T04:55:58.720Z,8.00
2017-12-23T04:58:26.279Z,7.90
2017-12-23T05:00:53.796Z,7.90
2017-12-23T05:03:22.103Z,7.90
2017-12-23T05:05:50.263Z,7.90
2017-12-23T05:08:17.791Z,7.90
2017-12-23T05:10:46.136Z,8.00
2017-12-23T05:13:13.693Z,7.90
2017-12-23T05:15:41.367Z,8.00
2017-12-23T05:18:08.935Z,8.00
2017-12-23T05:20:36.450Z,8.10
2017-12-23T05:23:04.027Z,8.10
2017-12-23T05:25:31.580Z,8.20
2017-12-23T05:27:59.096Z,8.30
2017-12-23T05:30:26.729Z,8.20
2017-12-23T05:32:54.220Z,8.30
2017-12-23T05:35:21.826Z,8.30
2017-12-23T05:37:49.346Z,8.30
2017-12-23T05:40:16.879Z,8.20
2017-12-23T05:42:45.227Z,8.10
2017-12-23T05:45:12.974Z,8.10
2017-12-23T05:47:40.574Z,8.10
2017-12-23T05:50:08.112Z,8.10
2017-12-23T05:52:35.675Z,8.10
2017-12-23T05:55:03.238Z,8.10
2017-12-23T05:57:30.756Z,8.20
2017-12-23T05:59:58.329Z,8.20
2017-12-23T06:02:25.881Z,8.30
2017-12-23T06:04:53.489Z,8.30
2017-12-23T06:07:21.071Z,8.30
2017-12-23T06:09:48.608Z,8.30
2017-12-23T06:12:16.140Z,8.30
2017-12-23T06:14:43.704Z,8.30
2017-12-23T06:17:11.226Z,8.30
2017-12-23T06:19:38.791Z,8.30
2017-12-23T06:22:06.401Z,8.40
2017-12-23T06:24:33.918Z,8.40
2017-12-23T06:27:01.477Z,8.40
2017-12-23T06:29:29.038Z,8.30
2017-12-23T06:31:56.606Z,8.30
2017-12-23T06:34:24.160Z,8.40
2017-12-23T06:36:51.758Z,8.50
2017-12-23T06:39:19.322Z,8.50
2017-12-23T06:41:47.724Z,8.60
2017-12-23T06:44:15.262Z,8.60
2017-12-23T06:46:42.834Z,8.60
2017-12-23T06:49:11.153Z,8.60
2017-12-23T06:51:38.782Z,8.60
2017-12-23T06:54:06.333Z,8.50
2017-12-23T06:56:34.667Z,8.50
2017-12-23T06:59:02.193Z,8.40
2017-12-23T07:01:30.325Z,8.50
2017-12-23T07:03:57.882Z,8.40
2017-12-23T07:06:25.429Z,8.50
2017-12-23T07:08:53.238Z,8.50
2017-12-23T07:11:21.559Z,8.40
2017-12-23T07:13:49.129Z,8.40
2017-12-23T07:16:16.656Z,8.50
2017-12-23T07:18:44.637Z,8.30
2017-12-23T07:21:12.207Z,8.20
2017-12-23T07:23:39.746Z,8.10
2017-12-23T07:26:07.317Z,8.10
2017-12-23T07:28:34.879Z,8.20
2017-12-23T07:31:02.653Z,8.10
2017-12-23T07:33:30.994Z,8.20
2017-12-23T07:35:58.518Z,8.20
2017-12-23T07:38:26.090Z,8.20
2017-12-23T07:40:55.230Z,8.40
2017-12-23T07:43:22.802Z,8.40
2017-12-23T07:45:50.355Z,8.50
2017-12-23T07:48:17.905Z,8.60
2017-12-23T07:50:45.475Z,8.70
2017-12-23T07:53:12.993Z,8.70
2017-12-23T07:55:42.232Z,8.70
2017-12-23T07:58:10.987Z,8.60
2017-12-23T08:00:40.192Z,8.60
2017-12-23T08:03:07.760Z,8.60
2017-12-23T08:05:36.090Z,8.40
2017-12-23T08:08:03.622Z,8.40
2017-12-23T08:10:31.208Z,8.50
2017-12-23T08:12:58.762Z,8.50
2017-12-23T08:15:26.283Z,8.50
2017-12-23T08:17:53.856Z,8.40
2017-12-23T08:20:21.388Z,8.50
2017-12-23T08:22:49.710Z,8.70
2017-12-23T08:25:17.252Z,8.60
2017-12-23T08:27:44.832Z,8.60
2017-12-23T08:30:13.164Z,8.60
2017-12-23T08:32:41.512Z,8.60
2017-12-23T08:35:09.813Z,8.50
2017-12-23T08:37:37.381Z,8.50
2017-12-23T08:40:05.739Z,8.50
2017-12-23T08:42:33.295Z,8.50
2017-12-23T08:45:00.874Z,8.50
2017-12-23T08:47:28.439Z,8.50
2017-12-23T08:49:56.022Z,8.50
2017-12-23T08:52:23.619Z,8.50
2017-12-23T08:54:51.202Z,8.60
2017-12-23T08:57:18.781Z,8.70
2017-12-23T08:59:46.344Z,8.70
2017-12-23T09:02:13.958Z,8.60
2017-12-23T09:04:41.510Z,8.60
2017-12-23T09:07:09.075Z,8.50
2017-12-23T09:09:36.651Z,8.50
2017-12-23T09:12:04.234Z,8.50
2017-12-23T09:14:31.809Z,8.50
2017-12-23T09:16:59.336Z,8.60
2017-12-23T09:19:26.895Z,8.70
2017-12-23T09:21:54.480Z,8.70
2017-12-23T09:24:22.892Z,8.70
2017-12-23T09:26:51.220Z,8.60
2017-12-23T09:29:18.752Z,8.70
2017-12-23T09:31:46.320Z,8.60
2017-12-23T09:34:13.891Z,8.60
2017-12-23T09:36:42.181Z,8.70
2017-12-23T09:39:10.527Z,8.70
2017-12-23T09:41:38.171Z,8.70
2017-12-23T09:44:05.793Z,8.70
2017-12-23T09:46:33.326Z,8.70
2017-12-23T09:49:00.912Z,8.80
2017-12-23T09:51:28.477Z,8.80
2017-12-23T09:53:56.478Z,8.80
2017-12-23T09:56:24.065Z,8.70
2017-12-23T09:58:51.625Z,8.80
2017-12-23T10:01:19.262Z,8.80
2017-12-23T10:03:46.804Z,8.80
2017-12-23T10:06:14.397Z,8.80
2017-12-23T10:08:43.431Z,9.00
2017-12-23T10:11:14.285Z,8.90
2017-12-23T10:13:42.846Z,8.90
2017-12-23T10:16:12.106Z,8.90
2017-12-23T10:18:40.578Z,8.80
2017-12-23T10:21:08.813Z,8.90
2017-12-23T10:23:37.873Z,9.00
2017-12-23T10:26:06.402Z,9.00
2017-12-23T10:28:33.922Z,9.00
2017-12-23T10:31:01.504Z,9.00
2017-12-23T10:33:30.254Z,8.90
2017-12-23T10:35:57.786Z,8.90
2017-12-23T10:38:25.713Z,8.90
2017-12-23T10:40:53.227Z,8.90
2017-12-23T10:43:20.742Z,9.00
2017-12-23T10:45:49.092Z,9.10
2017-12-23T10:48:16.592Z,9.10
2017-12-23T10:50:44.929Z,9.20
2017-12-23T10:53:12.527Z,9.20
2017-12-23T10:55:40.977Z,9.20
2017-12-23T10:58:08.548Z,9.30
2017-12-23T11:00:36.091Z,9.20
2017-12-23T11:03:03.655Z,9.30
2017-12-23T11:05:31.223Z,9.40
2017-12-23T11:07:58.743Z,9.40
2017-12-23T11:10:26.311Z,9.40
2017-12-23T11:12:53.864Z,9.40
2017-12-23T11:15:21.433Z,9.30
2017-12-23T11:17:48.969Z,9.20
2017-12-23T11:20:16.740Z,9.30
2017-12-23T11:22:44.309Z,9.20
2017-12-23T11:25:11.817Z,9.20
2017-12-23T11:27:39.394Z,9.30
2017-12-23T11:30:06.952Z,9.20
2017-12-23T11:32:34.500Z,9.20
2017-12-23T11:35:02.854Z,9.30
2017-12-23T11:37:30.859Z,9.30
2017-12-23T11:39:58.464Z,9.30
2017-12-23T11:42:26.106Z,9.30
2017-12-23T11:44:53.638Z,9.40
2017-12-23T11:47:21.217Z,9.50
2017-12-23T11:49:48.735Z,9.50
2017-12-23T11:52:16.287Z,9.50
2017-12-23T11:54:43.898Z,9.60
2017-12-23T11:57:11.923Z,9.60
2017-12-23T11:59:40.556Z,9.60
2017-12-23T12:02:08.127Z,9.50
2017-12-23T12:04:36.007Z,9.50
2017-12-23T12:07:03.752Z,9.60
2017-12-23T12:09:31.340Z,9.60
2017-12-23T12:11:58.878Z,9.60
2017-12-23T12:14:27.808Z,9.60
2017-12-23T12:16:55.338Z,9.60
2017-12-23T12:19:22.911Z,9.70
2017-12-23T12:21:50.456Z,9.60
2017-12-23T12:24:18.059Z,9.50
2017-12-23T12:26:45.594Z,9.50
2017-12-23T12:29:13.165Z,9.40
2017-12-23T12:31:41.323Z,9.30
2017-12-23T12:34:08.933Z,9.30
2017-12-23T12:36:37.251Z,9.30
2017-12-23T12:39:04.810Z,9.30
2017-12-23T12:41:32.469Z,9.40
2017-12-23T12:44:00.001Z,9.50
2017-12-23T12:46:27.600Z,9.50
2017-12-23T12:48:55.133Z,9.50
2017-12-23T12:51:22.708Z,9.50
2017-12-23T12:53:50.236Z,9.60
2017-12-23T12:56:17.788Z,9.60
2017-12-23T12:58:45.383Z,9.60
2017-12-23T13:01:12.949Z,9.70
2017-12-23T13:03:40.496Z,9.70
2017-12-23T13:06:08.131Z,9.80
2017-12-23T13:08:35.699Z,9.70
2017-12-23T13:11:03.256Z,9.80
2017-12-23T13:13:30.829Z,9.80
2017-12-23T13:15:58.360Z,9.80
2017-12-23T13:18:25.895Z,9.80
2017-12-23T13:20:54.968Z,9.90
2017-12-23T13:23:22.495Z,9.90
2017-12-23T13:25:50.078Z,9.90
2017-12-23T13:28:17.657Z,9.90
2017-12-23T13:30:45.203Z,9.90
2017-12-23T13:33:12.734Z,9.90
2017-12-23T13:35:40.325Z,9.90
2017-12-23T13:38:07.887Z,10.00
2017-12-23T13:40:35.451Z,10.00
2017-12-23T13:43:02.999Z,10.00
2017-12-23T13:45:31.546Z,10.00
2017-12-23T13:47:59.117Z,10.00
2017-12-23T13:50:26.702Z,10.00
2017-12-23T13:52:54.249Z,10.00
2017-12-23T13:55:25.439Z,10.00
2017-12-23T13:57:54.323Z,9.90
2017-12-23T14:00:24.326Z,10.00
2017-12-23T14:02:51.929Z,9.90
2017-12-23T14:05:20.227Z,9.90
2017-12-23T14:07:47.821Z,9.90
2017-12-23T14:10:15.363Z,10.00
2017-12-23T14:12:42.928Z,9.90
2017-12-23T14:15:10.586Z,9.90
2017-12-23T14:17:38.166Z,9.90
2017-12-23T14:20:05.752Z,10.00
2017-12-23T14:22:33.303Z,9.90
2017-12-23T14:25:01.662Z,10.00
2017-12-23T14:27:29.945Z,9.90
2017-12-23T14:29:57.522Z,9.90
2017-12-23T14:32:25.993Z,9.80
2017-12-23T14:34:54.336Z,9.70
2017-12-23T14:37:21.940Z,9.70
2017-12-23T14:39:49.470Z,9.70
2017-12-23T14:42:17.912Z,9.60
2017-12-23T14:44:45.480Z,9.60
2017-12-23T14:47:15.395Z,9.70
2017-12-23T14:49:43.917Z,9.60
2017-12-23T14:52:11.510Z,9.60
2017-12-23T14:54:39.101Z,9.60
2017-12-23T14:57:06.768Z,9.60
2017-12-23T14:59:34.330Z,9.50
2017-12-23T15:02:01.971Z,9.60
2017-12-23T15:04:30.990Z,9.70
2017-12-23T15:07:02.418Z,9.60
2017-12-23T15:09:30.717Z,9.70
2017-12-23T15:11:58.275Z,9.70
2017-12-23T15:14:25.836Z,9.70
2017-12-23T15:16:53.375Z,9.70
2017-12-23T15:19:20.934Z,9.70
2017-12-23T15:21:48.460Z,9.90
2017-12-23T15:24:16.737Z,9.80
2017-12-23T15:26:44.395Z,9.80
2017-12-23T15:29:11.939Z,9.80
2017-12-23T15:31:39.480Z,9.80
2017-12-23T15:34:07.067Z,9.80
2017-12-23T15:36:34.677Z,9.80
2017-12-23T15:39:02.295Z,9.80
2017-12-23T15:41:30.287Z,9.90
2017-12-23T15:43:57.993Z,9.90
2017-12-23T15:46:25.515Z,9.90
2017-12-23T15:48:53.827Z,9.80
2017-12-23T15:51:21.466Z,9.80
2017-12-23T15:53:49.022Z,9.80
2017-12-23T15:56:16.555Z,9.80
2017-12-23T15:58:44.836Z,9.80
2017-12-23T16:01:12.430Z,9.80
2017-12-23T16:03:40.005Z,9.80
2017-12-23T16:06:07.630Z,9.70
2017-12-23T16:08:35.169Z,9.70
2017-12-23T16:11:02.719Z,9.80
2017-12-23T16:13:31.225Z,9.70
2017-12-23T16:15:59.520Z,9.70
2017-12-23T16:18:27.096Z,9.70
2017-12-23T16:20:54.648Z,9.70
2017-12-23T16:23:23.876Z,9.70
2017-12-23T16:25:51.420Z,9.70
2017-12-23T16:28:19.818Z,9.60
2017-12-23T16:30:47.369Z,9.70
2017-12-23T16:33:14.958Z,9.70
2017-12-23T16:35:42.539Z,9.70
2017-12-23T16:38:11.606Z,9.70
2017-12-23T16:40:39.653Z,9.70
2017-12-23T16:43:07.244Z,9.60
2017-12-23T16:45:34.789Z,9.70
2017-12-23T16:48:02.526Z,9.70
2017-12-23T16:50:30.135Z,9.60
2017-12-23T16:52:57.659Z,9.60
2017-12-23T16:55:25.236Z,9.70
2017-12-23T16:57:52.821Z,9.70
2017-12-23T17:00:20.350Z,9.70
2017-12-23T17:02:47.894Z,9.80
2017-12-23T17:05:15.461Z,9.70
2017-12-23T17:07:43.756Z,9.70
2017-12-23T17:10:11.381Z,9.70
2017-12-23T17:12:38.970Z,9.80
2017-12-23T17:15:06.712Z,9.60
2017-12-23T17:17:34.324Z,9.70
2017-12-23T17:20:01.950Z,9.70
2017-12-23T17:22:29.581Z,9.80
2017-12-23T17:24:57.259Z,9.80
2017-12-23T17:27:24.902Z,9.80
2017-12-23T17:30:06.013Z,9.80
2017-12-23T17:32:33.674Z,9.70
2017-12-23T17:35:01.291Z,9.70
2017-12-23T17:37:30.431Z,9.80
2017-12-23T17:39:57.985Z,9.70
2017-12-23T17:42:25.562Z,9.80
2017-12-23T17:44:53.150Z,9.70
2017-12-23T17:47:20.682Z,9.80
2017-12-23T17:49:48.281Z,9.80
2017-12-23T17:52:15.860Z,9.80
2017-12-23T17:54:43.430Z,9.80
2017-12-23T17:57:10.973Z,9.80
2017-12-23T17:59:38.535Z,9.80
2017-12-23T18:02:06.180Z,9.80
2017-12-23T18:04:34.477Z,9.80
2017-12-23T18:07:02.007Z,9.80
2017-12-23T18:09:31.053Z,9.80
2017-12-23T18:11:58.609Z,9.80
2017-12-23T18:14:26.212Z,9.80
2017-12-23T18:16:53.771Z,9.80
2017-12-23T18:19:21.355Z,9.80
2017-12-23T18:21:49.681Z,9.80
2017-12-23T18:24:17.268Z,9.80
2017-12-23T18:26:44.846Z,9.80
2017-12-23T18:29:13.155Z,9.80
2017-12-23T18:31:40.748Z,9.80
2017-12-23T18:34:08.298Z,9.80
2017-12-23T18:36:35.860Z,9.80
2017-12-23T18:39:03.470Z,9.80
2017-12-23T18:41:31.002Z,9.80
2017-12-23T18:43:58.644Z,9.80
2017-12-23T18:46:26.202Z,9.80
2017-12-23T18:48:53.740Z,9.80
2017-12-23T18:51:21.332Z,9.80
2017-12-23T18:53:49.658Z,9.90
2017-12-23T18:56:17.991Z,9.80
2017-12-23T18:58:45.515Z,9.80
2017-12-23T19:01:13.101Z,9.80
2017-12-23T19:03:40.730Z,9.80
2017-12-23T19:06:08.436Z,9.80
2017-12-23T19:08:36.003Z,9.90
2017-12-23T19:11:03.568Z,9.90
2017-12-23T19:13:31.169Z,10.00
2017-12-23T19:15:58.810Z,10.00
2017-12-23T19:18:26.718Z,10.00
2017-12-23T19:20:54.347Z,10.10
2017-12-23T19:23:21.950Z,10.00
2017-12-23T19:25:49.517Z,9.90
2017-12-23T19:28:17.084Z,10.00
2017-12-23T19:30:44.643Z,10.00
2017-12-23T19:33:12.313Z,10.00
2017-12-23T19:35:39.908Z,9.90
2017-12-23T19:38:08.235Z,10.00
2017-12-23T19:40:35.787Z,10.00
2017-12-23T19:43:03.353Z,10.00
2017-12-23T19:45:30.961Z,10.00
2017-12-23T19:47:58.495Z,10.00
2017-12-23T19:50:26.100Z,9.90
2017-12-23T19:52:53.701Z,10.00
2017-12-23T19:55:22.000Z,10.00
2017-12-23T19:57:49.674Z,9.90
2017-12-23T20:00:17.824Z,10.00
2017-12-23T20:02:45.417Z,10.00
2017-12-23T20:05:13.804Z,10.00
2017-12-23T20:07:45.010Z,10.00
2017-12-23T20:10:13.584Z,10.00
2017-12-23T20:12:41.113Z,10.00
2017-12-23T20:15:08.666Z,10.10
2017-12-23T20:17:36.298Z,10.00
2017-12-23T20:20:06.281Z,10.10
2017-12-23T20:22:33.865Z,10.00
2017-12-23T20:25:01.386Z,10.00
2017-12-23T20:27:31.392Z,10.00
2017-12-23T20:29:59.105Z,9.90
2017-12-23T20:32:26.638Z,9.90
2017-12-23T20:34:54.184Z,9.90
2017-12-23T20:37:21.739Z,10.00
2017-12-23T20:39:49.315Z,9.90
2017-12-23T20:42:16.836Z,9.90
2017-12-23T20:44:44.370Z,9.90
2017-12-23T20:47:12.682Z,9.90
2017-12-23T20:49:40.244Z,9.90
2017-12-23T20:52:07.760Z,9.80
2017-12-23T20:54:35.394Z,9.80
2017-12-23T20:57:02.958Z,9.80
2017-12-23T20:59:31.278Z,9.80
2017-12-23T21:01:58.881Z,9.70
2017-12-23T21:04:26.477Z,9.60
2017-12-23T21:06:54.805Z,9.60
2017-12-23T21:09:23.130Z,9.60
2017-12-23T21:11:51.504Z,9.50
2017-12-23T21:14:19.087Z,9.50
2017-12-23T21:16:46.628Z,9.50
2017-12-23T21:19:14.240Z,9.60
2017-12-23T21:21:42.599Z,9.60
2017-12-23T21:24:10.159Z,9.60
2017-12-23T21:26:37.700Z,9.60
2017-12-23T21:29:05.300Z,9.60
2017-12-23T21:31:32.819Z,9.60
2017-12-23T21:34:00.387Z,9.60
2017-12-23T21:36:27.977Z,9.60
2017-12-23T21:38:55.546Z,9.60
2017-12-23T21:41:23.076Z,9.60
2017-12-23T21:43:51.040Z,9.50
2017-12-23T21:46:19.349Z,9.50
2017-12-23T21:48:47.781Z,9.50
2017-12-23T21:51:15.483Z,9.50
2017-12-23T21:53:43.068Z,9.50
2017-12-23T21:56:11.761Z,9.50
2017-12-23T21:58:39.401Z,9.40
2017-12-23T22:01:07.555Z,9.50
2017-12-23T22:03:36.225Z,9.50
2017-12-23T22:06:04.758Z,9.60
2017-12-23T22:08:32.321Z,9.50
2017-12-23T22:10:59.890Z,9.60
2017-12-23T22:13:27.499Z,9.60
2017-12-23T22:15:55.108Z,9.60
2017-12-23T22:18:22.664Z,9.60
2017-12-23T22:20:50.230Z,9.70
2017-12-23T22:23:17.787Z,9.60
2017-12-23T22:38:41.172Z,9.50
2017-12-23T22:41:09.602Z,9.50
2017-12-23T22:43:37.299Z,9.60
2017-12-23T22:46:04.887Z,9.60
2017-12-23T22:48:33.210Z,9.70
2017-12-23T22:51:00.748Z,9.70
2017-12-23T22:53:28.343Z,9.80
2017-12-23T22:55:55.967Z,9.80
2017-12-23T22:58:23.488Z,9.90
2017-12-23T23:00:51.078Z,9.80
2017-12-23T23:03:18.605Z,9.90
2017-12-23T23:05:46.937Z,9.80
2017-12-23T23:08:15.254Z,9.80
2017-12-23T23:10:42.830Z,9.80
2017-12-23T23:13:10.595Z,9.80
2017-12-23T23:15:38.132Z,9.70
2017-12-23T23:18:05.657Z,9.70
2017-12-23T23:20:33.201Z,9.70
2017-12-23T23:23:00.774Z,9.70
2017-12-23T23:25:28.317Z,9.70
2017-12-23T23:27:55.879Z,9.70
2017-12-23T23:30:23.448Z,9.70
2017-12-23T23:32:51.019Z,9.70
2017-12-23T23:35:18.563Z,9.60
2017-12-23T23:37:46.912Z,9.60
2017-12-23T23:40:14.459Z,9.60
2017-12-23T23:42:42.015Z,9.60
2017-12-23T23:45:09.583Z,9.70
2017-12-23T23:47:37.910Z,9.70
2017-12-23T23:50:06.775Z,9.70
2017-12-23T23:52:34.924Z,9.70
2017-12-23T23:55:02.517Z,9.80
2017-12-23T23:57:30.845Z,9.70
2017-12-23T23:59:58.379Z,9.80
